sensor_id;sensor_type;location;lat;lon;timestamp;P1;durP1;ratioP1;P2;durP2;ratioP2
75649;SDS011;64245;51.282;22.494;2023-04-01T00:02:07;23.58;;;12.45;;
75649;SDS011;64245;51.282;22.494;2023-04-01T00:04:33;24.85;;;12.18;;
75649;SDS011;64245;51.282;22.494;2023-04-01T00:06:58;27.13;;;12.07;;
75649;SDS011;64245;51.282;22.494;2023-04-01T00:09:25;25.67;;;12.13;;
75649;SDS011;64245;51.282;22.494;2023-04-01T00:11:51;22.48;;;11.63;;
75649;SDS011;64245;51.282;22.494;2023-04-01T00:14:17;24.08;;;12.32;;
75649;SDS011;64245;51.282;22.494;2023-04-01T00:16:42;24.42;;;12.07;;
75649;SDS011;64245;51.282;22.494;2023-04-01T00:19:08;29.83;;;13.48;;
75649;SDS011;64245;51.282;22.494;2023-04-01T00:21:34;26.98;;;11.82;;
75649;SDS011;64245;51.282;22.494;2023-04-01T00:24:00;28.00;;;13.30;;
75649;SDS011;64245;51.282;22.494;2023-04-01T00:26:25;23.88;;;11.38;;
75649;SDS011;64245;51.282;22.494;2023-04-01T00:28:52;27.75;;;12.45;;
75649;SDS011;64245;51.282;22.494;2023-04-01T00:31:17;26.85;;;13.07;;
75649;SDS011;64245;51.282;22.494;2023-04-01T00:33:43;24.85;;;11.93;;
75649;SDS011;64245;51.282;22.494;2023-04-01T00:36:13;24.50;;;12.75;;
75649;SDS011;64245;51.282;22.494;2023-04-01T00:38:40;23.98;;;11.23;;
75649;SDS011;64245;51.282;22.494;2023-04-01T00:41:07;25.05;;;12.20;;
75649;SDS011;64245;51.282;22.494;2023-04-01T00:43:39;22.27;;;11.25;;
75649;SDS011;64245;51.282;22.494;2023-04-01T00:46:06;35.65;;;14.35;;
75649;SDS011;64245;51.282;22.494;2023-04-01T00:48:35;25.98;;;11.65;;
75649;SDS011;64245;51.282;22.494;2023-04-01T00:51:04;26.30;;;11.80;;
75649;SDS011;64245;51.282;22.494;2023-04-01T00:53:33;30.88;;;13.73;;
75649;SDS011;64245;51.282;22.494;2023-04-01T00:56:05;30.08;;;12.95;;
75649;SDS011;64245;51.282;22.494;2023-04-01T00:58:38;26.90;;;12.63;;
75649;SDS011;64245;51.282;22.494;2023-04-01T01:01:08;25.90;;;11.50;;
75649;SDS011;64245;51.282;22.494;2023-04-01T01:03:34;23.63;;;10.90;;
75649;SDS011;64245;51.282;22.494;2023-04-01T01:06:11;28.08;;;12.57;;
75649;SDS011;64245;51.282;22.494;2023-04-01T01:08:52;21.50;;;11.43;;
75649;SDS011;64245;51.282;22.494;2023-04-01T01:11:31;29.23;;;12.50;;
75649;SDS011;64245;51.282;22.494;2023-04-01T01:16:55;16.88;;;9.40;;
75649;SDS011;64245;51.282;22.494;2023-04-01T01:29:44;29.45;;;12.00;;
75649;SDS011;64245;51.282;22.494;2023-04-01T01:38:00;27.05;;;13.38;;
75649;SDS011;64245;51.282;22.494;2023-04-01T01:40:31;20.95;;;11.40;;
75649;SDS011;64245;51.282;22.494;2023-04-01T01:42:59;29.80;;;12.30;;
75649;SDS011;64245;51.282;22.494;2023-04-01T01:45:32;26.15;;;12.73;;
75649;SDS011;64245;51.282;22.494;2023-04-01T01:48:00;30.88;;;14.45;;
75649;SDS011;64245;51.282;22.494;2023-04-01T01:50:29;28.08;;;12.52;;
75649;SDS011;64245;51.282;22.494;2023-04-01T01:53:05;30.65;;;14.73;;
75649;SDS011;64245;51.282;22.494;2023-04-01T01:55:37;26.52;;;12.88;;
75649;SDS011;64245;51.282;22.494;2023-04-01T01:58:10;26.55;;;12.50;;
75649;SDS011;64245;51.282;22.494;2023-04-01T02:00:42;26.48;;;12.32;;
75649;SDS011;64245;51.282;22.494;2023-04-01T02:03:12;26.52;;;12.85;;
75649;SDS011;64245;51.282;22.494;2023-04-01T02:08:13;27.42;;;11.82;;
75649;SDS011;64245;51.282;22.494;2023-04-01T02:10:45;28.75;;;12.70;;
75649;SDS011;64245;51.282;22.494;2023-04-01T02:13:26;27.10;;;13.15;;
75649;SDS011;64245;51.282;22.494;2023-04-01T02:15:58;30.00;;;14.02;;
75649;SDS011;64245;51.282;22.494;2023-04-01T02:18:28;28.52;;;13.60;;
75649;SDS011;64245;51.282;22.494;2023-04-01T02:20:56;29.15;;;13.13;;
75649;SDS011;64245;51.282;22.494;2023-04-01T02:23:23;27.20;;;12.93;;
75649;SDS011;64245;51.282;22.494;2023-04-01T02:25:49;25.15;;;12.63;;
75649;SDS011;64245;51.282;22.494;2023-04-01T02:28:16;28.25;;;13.40;;
75649;SDS011;64245;51.282;22.494;2023-04-01T02:30:45;28.40;;;12.20;;
75649;SDS011;64245;51.282;22.494;2023-04-01T02:33:13;21.13;;;9.27;;
75649;SDS011;64245;51.282;22.494;2023-04-01T02:35:39;29.25;;;13.48;;
75649;SDS011;64245;51.282;22.494;2023-04-01T02:38:04;25.85;;;12.20;;
75649;SDS011;64245;51.282;22.494;2023-04-01T02:40:40;27.08;;;12.48;;
75649;SDS011;64245;51.282;22.494;2023-04-01T02:43:13;34.88;;;18.38;;
75649;SDS011;64245;51.282;22.494;2023-04-01T02:45:39;29.42;;;13.48;;
75649;SDS011;64245;51.282;22.494;2023-04-01T02:48:05;30.20;;;14.75;;
75649;SDS011;64245;51.282;22.494;2023-04-01T02:50:31;29.48;;;13.70;;
75649;SDS011;64245;51.282;22.494;2023-04-01T02:52:56;24.02;;;12.55;;
75649;SDS011;64245;51.282;22.494;2023-04-01T02:55:22;25.73;;;13.77;;
75649;SDS011;64245;51.282;22.494;2023-04-01T02:57:47;25.20;;;13.02;;
75649;SDS011;64245;51.282;22.494;2023-04-01T03:00:13;28.48;;;13.02;;
75649;SDS011;64245;51.282;22.494;2023-04-01T03:02:40;23.00;;;11.77;;
75649;SDS011;64245;51.282;22.494;2023-04-01T03:05:05;30.88;;;13.13;;
75649;SDS011;64245;51.282;22.494;2023-04-01T03:07:32;23.55;;;12.07;;
75649;SDS011;64245;51.282;22.494;2023-04-01T03:09:58;29.67;;;13.48;;
75649;SDS011;64245;51.282;22.494;2023-04-01T03:12:24;26.08;;;12.55;;
75649;SDS011;64245;51.282;22.494;2023-04-01T03:14:49;26.85;;;13.38;;
75649;SDS011;64245;51.282;22.494;2023-04-01T03:17:15;26.17;;;11.57;;
75649;SDS011;64245;51.282;22.494;2023-04-01T03:19:41;26.80;;;13.20;;
75649;SDS011;64245;51.282;22.494;2023-04-01T03:22:07;26.45;;;11.75;;
75649;SDS011;64245;51.282;22.494;2023-04-01T03:24:35;28.00;;;13.50;;
75649;SDS011;64245;51.282;22.494;2023-04-01T03:27:00;33.38;;;16.00;;
75649;SDS011;64245;51.282;22.494;2023-04-01T03:29:26;31.67;;;14.25;;
75649;SDS011;64245;51.282;22.494;2023-04-01T03:31:52;34.38;;;14.65;;
75649;SDS011;64245;51.282;22.494;2023-04-01T03:34:17;30.98;;;13.90;;
75649;SDS011;64245;51.282;22.494;2023-04-01T03:36:43;29.00;;;14.20;;
75649;SDS011;64245;51.282;22.494;2023-04-01T03:39:09;31.08;;;15.10;;
75649;SDS011;64245;51.282;22.494;2023-04-01T03:41:35;28.77;;;12.75;;
75649;SDS011;64245;51.282;22.494;2023-04-01T03:44:03;26.73;;;12.15;;
75649;SDS011;64245;51.282;22.494;2023-04-01T03:46:29;27.23;;;13.00;;
75649;SDS011;64245;51.282;22.494;2023-04-01T03:48:55;32.92;;;14.35;;
75649;SDS011;64245;51.282;22.494;2023-04-01T03:51:20;27.13;;;14.55;;
75649;SDS011;64245;51.282;22.494;2023-04-01T03:53:46;30.75;;;13.18;;
75649;SDS011;64245;51.282;22.494;2023-04-01T03:56:12;26.65;;;14.18;;
75649;SDS011;64245;51.282;22.494;2023-04-01T03:58:37;28.92;;;13.88;;
75649;SDS011;64245;51.282;22.494;2023-04-01T04:01:12;34.63;;;16.17;;
75649;SDS011;64245;51.282;22.494;2023-04-01T04:03:42;35.90;;;15.77;;
75649;SDS011;64245;51.282;22.494;2023-04-01T04:06:12;30.10;;;14.63;;
75649;SDS011;64245;51.282;22.494;2023-04-01T04:08:39;28.67;;;14.15;;
75649;SDS011;64245;51.282;22.494;2023-04-01T04:11:05;33.33;;;15.38;;
75649;SDS011;64245;51.282;22.494;2023-04-01T04:13:31;29.45;;;13.32;;
75649;SDS011;64245;51.282;22.494;2023-04-01T04:15:56;29.50;;;13.40;;
75649;SDS011;64245;51.282;22.494;2023-04-01T04:18:23;32.83;;;15.48;;
75649;SDS011;64245;51.282;22.494;2023-04-01T04:20:49;29.70;;;13.70;;
75649;SDS011;64245;51.282;22.494;2023-04-01T04:23:16;33.58;;;15.60;;
75649;SDS011;64245;51.282;22.494;2023-04-01T04:25:59;34.47;;;15.20;;
75649;SDS011;64245;51.282;22.494;2023-04-01T04:28:32;36.85;;;15.55;;
75649;SDS011;64245;51.282;22.494;2023-04-01T04:30:58;32.30;;;14.60;;
75649;SDS011;64245;51.282;22.494;2023-04-01T04:33:25;33.17;;;15.30;;
75649;SDS011;64245;51.282;22.494;2023-04-01T04:35:54;37.47;;;16.90;;
75649;SDS011;64245;51.282;22.494;2023-04-01T04:38:21;35.80;;;16.45;;
75649;SDS011;64245;51.282;22.494;2023-04-01T04:40:46;33.17;;;16.35;;
75649;SDS011;64245;51.282;22.494;2023-04-01T04:43:13;32.65;;;14.07;;
75649;SDS011;64245;51.282;22.494;2023-04-01T04:45:40;32.97;;;15.77;;
75649;SDS011;64245;51.282;22.494;2023-04-01T04:48:07;30.38;;;14.10;;
75649;SDS011;64245;51.282;22.494;2023-04-01T04:50:34;30.73;;;13.80;;
75649;SDS011;64245;51.282;22.494;2023-04-01T04:53:00;32.08;;;15.48;;
75649;SDS011;64245;51.282;22.494;2023-04-01T04:55:25;30.60;;;15.07;;
75649;SDS011;64245;51.282;22.494;2023-04-01T04:57:51;31.48;;;14.90;;
75649;SDS011;64245;51.282;22.494;2023-04-01T05:00:17;30.13;;;13.40;;
75649;SDS011;64245;51.282;22.494;2023-04-01T05:02:43;26.63;;;13.38;;
75649;SDS011;64245;51.282;22.494;2023-04-01T05:05:08;30.98;;;14.45;;
75649;SDS011;64245;51.282;22.494;2023-04-01T05:07:34;27.70;;;14.30;;
75649;SDS011;64245;51.282;22.494;2023-04-01T05:10:00;29.85;;;14.20;;
75649;SDS011;64245;51.282;22.494;2023-04-01T05:12:25;32.40;;;13.27;;
75649;SDS011;64245;51.282;22.494;2023-04-01T05:14:51;24.55;;;13.63;;
75649;SDS011;64245;51.282;22.494;2023-04-01T05:17:17;28.42;;;13.98;;
75649;SDS011;64245;51.282;22.494;2023-04-01T05:19:42;23.75;;;11.90;;
75649;SDS011;64245;51.282;22.494;2023-04-01T05:22:08;26.30;;;14.30;;
75649;SDS011;64245;51.282;22.494;2023-04-01T05:24:34;25.13;;;14.25;;
75649;SDS011;64245;51.282;22.494;2023-04-01T05:27:00;20.20;;;10.70;;
75649;SDS011;64245;51.282;22.494;2023-04-01T05:29:25;28.45;;;13.70;;
75649;SDS011;64245;51.282;22.494;2023-04-01T05:31:52;25.17;;;13.23;;
75649;SDS011;64245;51.282;22.494;2023-04-01T05:34:17;25.15;;;12.75;;
75649;SDS011;64245;51.282;22.494;2023-04-01T05:36:43;23.55;;;12.75;;
75649;SDS011;64245;51.282;22.494;2023-04-01T05:39:10;21.83;;;11.63;;
75649;SDS011;64245;51.282;22.494;2023-04-01T05:41:36;24.67;;;11.77;;
75649;SDS011;64245;51.282;22.494;2023-04-01T05:44:02;23.80;;;12.18;;
75649;SDS011;64245;51.282;22.494;2023-04-01T05:46:29;22.17;;;11.98;;
75649;SDS011;64245;51.282;22.494;2023-04-01T05:48:54;24.20;;;12.68;;
75649;SDS011;64245;51.282;22.494;2023-04-01T05:51:20;14.55;;;6.80;;
75649;SDS011;64245;51.282;22.494;2023-04-01T05:53:46;21.45;;;11.23;;
75649;SDS011;64245;51.282;22.494;2023-04-01T05:56:12;20.98;;;12.80;;
75649;SDS011;64245;51.282;22.494;2023-04-01T05:58:38;22.92;;;12.00;;
75649;SDS011;64245;51.282;22.494;2023-04-01T06:01:05;22.75;;;11.85;;
75649;SDS011;64245;51.282;22.494;2023-04-01T06:03:35;19.60;;;11.60;;
75649;SDS011;64245;51.282;22.494;2023-04-01T06:06:02;12.07;;;7.82;;
75649;SDS011;64245;51.282;22.494;2023-04-01T06:08:28;19.98;;;10.57;;
75649;SDS011;64245;51.282;22.494;2023-04-01T06:23:23;10.02;;;6.40;;
75649;SDS011;64245;51.282;22.494;2023-04-01T06:26:11;13.68;;;6.22;;
75649;SDS011;64245;51.282;22.494;2023-04-01T06:31:10;14.95;;;9.02;;
75649;SDS011;64245;51.282;22.494;2023-04-01T06:33:54;17.90;;;9.60;;
75649;SDS011;64245;51.282;22.494;2023-04-01T06:53:31;21.25;;;9.88;;
75649;SDS011;64245;51.282;22.494;2023-04-01T06:56:28;13.52;;;8.15;;
75649;SDS011;64245;51.282;22.494;2023-04-01T06:59:02;13.98;;;8.60;;
75649;SDS011;64245;51.282;22.494;2023-04-01T07:01:35;16.83;;;9.35;;
75649;SDS011;64245;51.282;22.494;2023-04-01T07:04:13;11.77;;;6.38;;
75649;SDS011;64245;51.282;22.494;2023-04-01T07:09:56;17.85;;;9.07;;
75649;SDS011;64245;51.282;22.494;2023-04-01T07:15:01;19.08;;;9.98;;
75649;SDS011;64245;51.282;22.494;2023-04-01T07:17:37;17.20;;;9.20;;
75649;SDS011;64245;51.282;22.494;2023-04-01T07:20:14;18.75;;;10.85;;
75649;SDS011;64245;51.282;22.494;2023-04-01T07:23:00;18.13;;;9.85;;
75649;SDS011;64245;51.282;22.494;2023-04-01T07:25:36;12.15;;;7.90;;
75649;SDS011;64245;51.282;22.494;2023-04-01T07:28:06;15.65;;;8.18;;
75649;SDS011;64245;51.282;22.494;2023-04-01T07:39:02;8.93;;;4.75;;
75649;SDS011;64245;51.282;22.494;2023-04-01T07:41:45;10.23;;;5.90;;
75649;SDS011;64245;51.282;22.494;2023-04-01T07:50:10;15.52;;;7.78;;
75649;SDS011;64245;51.282;22.494;2023-04-01T07:55:18;11.77;;;7.30;;
75649;SDS011;64245;51.282;22.494;2023-04-01T07:58:03;13.77;;;5.50;;
75649;SDS011;64245;51.282;22.494;2023-04-01T08:00:42;10.57;;;6.30;;
75649;SDS011;64245;51.282;22.494;2023-04-01T08:08:51;8.40;;;4.97;;
75649;SDS011;64245;51.282;22.494;2023-04-01T08:16:52;9.27;;;5.82;;
75649;SDS011;64245;51.282;22.494;2023-04-01T08:22:03;8.55;;;4.43;;
75649;SDS011;64245;51.282;22.494;2023-04-01T08:27:06;9.93;;;4.97;;
75649;SDS011;64245;51.282;22.494;2023-04-01T08:29:59;8.40;;;5.70;;
75649;SDS011;64245;51.282;22.494;2023-04-01T08:32:35;5.68;;;3.63;;
75649;SDS011;64245;51.282;22.494;2023-04-01T08:37:52;6.22;;;3.92;;
75649;SDS011;64245;51.282;22.494;2023-04-01T08:53:58;6.55;;;4.07;;
75649;SDS011;64245;51.282;22.494;2023-04-01T09:02:55;5.95;;;3.58;;
75649;SDS011;64245;51.282;22.494;2023-04-01T09:05:43;6.85;;;4.25;;
75649;SDS011;64245;51.282;22.494;2023-04-01T09:08:41;9.57;;;4.95;;
75649;SDS011;64245;51.282;22.494;2023-04-01T09:14:16;6.68;;;3.67;;
75649;SDS011;64245;51.282;22.494;2023-04-01T09:19:49;3.95;;;2.78;;
75649;SDS011;64245;51.282;22.494;2023-04-01T09:22:24;4.30;;;2.83;;
75649;SDS011;64245;51.282;22.494;2023-04-01T09:27:35;4.35;;;2.33;;
75649;SDS011;64245;51.282;22.494;2023-04-01T09:30:10;7.07;;;3.10;;
75649;SDS011;64245;51.282;22.494;2023-04-01T09:32:58;4.82;;;3.13;;
75649;SDS011;64245;51.282;22.494;2023-04-01T09:35:50;3.97;;;1.85;;
75649;SDS011;64245;51.282;22.494;2023-04-01T09:38:29;4.13;;;2.33;;
75649;SDS011;64245;51.282;22.494;2023-04-01T09:49:53;3.20;;;1.60;;
75649;SDS011;64245;51.282;22.494;2023-04-01T09:52:51;3.97;;;1.85;;
75649;SDS011;64245;51.282;22.494;2023-04-01T10:01:33;3.95;;;2.08;;
75649;SDS011;64245;51.282;22.494;2023-04-01T10:06:51;3.42;;;2.40;;
75649;SDS011;64245;51.282;22.494;2023-04-01T10:17:21;3.47;;;2.90;;
75649;SDS011;64245;51.282;22.494;2023-04-01T10:20:00;5.90;;;3.85;;
75649;SDS011;64245;51.282;22.494;2023-04-01T10:25:25;5.22;;;3.20;;
75649;SDS011;64245;51.282;22.494;2023-04-01T10:34:05;5.47;;;2.83;;
75649;SDS011;64245;51.282;22.494;2023-04-01T11:01:19;7.45;;;3.50;;
75649;SDS011;64245;51.282;22.494;2023-04-01T11:29:43;3.63;;;2.72;;
75649;SDS011;64245;51.282;22.494;2023-04-01T11:32:20;5.20;;;3.75;;
75649;SDS011;64245;51.282;22.494;2023-04-01T11:40:47;6.38;;;3.83;;
75649;SDS011;64245;51.282;22.494;2023-04-01T11:43:43;7.75;;;3.85;;
75649;SDS011;64245;51.282;22.494;2023-04-01T11:46:28;5.63;;;3.53;;
75649;SDS011;64245;51.282;22.494;2023-04-01T11:52:34;6.22;;;3.47;;
75649;SDS011;64245;51.282;22.494;2023-04-01T12:14:05;1.33;;;0.50;;
75649;SDS011;64245;51.282;22.494;2023-04-01T12:19:23;1.23;;;0.68;;
75649;SDS011;64245;51.282;22.494;2023-04-01T12:22:00;1.58;;;0.68;;
75649;SDS011;64245;51.282;22.494;2023-04-01T12:27:32;2.15;;;1.05;;
75649;SDS011;64245;51.282;22.494;2023-04-01T12:38:10;0.60;;;0.40;;
75649;SDS011;64245;51.282;22.494;2023-04-01T12:40:51;3.03;;;1.10;;
75649;SDS011;64245;51.282;22.494;2023-04-01T12:46:12;3.30;;;1.52;;
75649;SDS011;64245;51.282;22.494;2023-04-01T13:02:39;2.90;;;1.40;;
75649;SDS011;64245;51.282;22.494;2023-04-01T13:15:51;1.25;;;1.00;;
75649;SDS011;64245;51.282;22.494;2023-04-01T13:21:01;2.95;;;1.38;;
75649;SDS011;64245;51.282;22.494;2023-04-01T13:26:29;2.10;;;1.02;;
75649;SDS011;64245;51.282;22.494;2023-04-01T13:43:16;4.57;;;1.95;;
75649;SDS011;64245;51.282;22.494;2023-04-01T13:46:08;4.18;;;2.55;;
75649;SDS011;64245;51.282;22.494;2023-04-01T13:48:49;3.47;;;2.00;;
75649;SDS011;64245;51.282;22.494;2023-04-01T13:57:09;3.95;;;2.42;;
75649;SDS011;64245;51.282;22.494;2023-04-01T14:11:39;7.70;;;4.75;;
75649;SDS011;64245;51.282;22.494;2023-04-01T14:14:02;7.07;;;4.82;;
75649;SDS011;64245;51.282;22.494;2023-04-01T14:22:38;7.90;;;4.55;;
75649;SDS011;64245;51.282;22.494;2023-04-01T14:33:51;9.35;;;5.15;;
75649;SDS011;64245;51.282;22.494;2023-04-01T14:36:41;5.38;;;4.20;;
75649;SDS011;64245;51.282;22.494;2023-04-01T14:41:58;10.43;;;5.30;;
75649;SDS011;64245;51.282;22.494;2023-04-01T14:47:28;7.05;;;5.50;;
75649;SDS011;64245;51.282;22.494;2023-04-01T14:50:14;8.90;;;5.93;;
75649;SDS011;64245;51.282;22.494;2023-04-01T14:52:55;15.75;;;7.22;;
75649;SDS011;64245;51.282;22.494;2023-04-01T14:58:18;13.65;;;7.70;;
75649;SDS011;64245;51.282;22.494;2023-04-01T15:03:22;13.50;;;8.68;;
75649;SDS011;64245;51.282;22.494;2023-04-01T15:08:54;14.65;;;7.95;;
75649;SDS011;64245;51.282;22.494;2023-04-01T15:11:40;17.25;;;8.63;;
75649;SDS011;64245;51.282;22.494;2023-04-01T15:14:18;13.70;;;8.30;;
75649;SDS011;64245;51.282;22.494;2023-04-01T15:17:03;12.27;;;8.10;;
75649;SDS011;64245;51.282;22.494;2023-04-01T15:19:55;16.70;;;7.72;;
75649;SDS011;64245;51.282;22.494;2023-04-01T15:22:48;11.20;;;6.95;;
75649;SDS011;64245;51.282;22.494;2023-04-01T15:28:12;13.57;;;8.00;;
75649;SDS011;64245;51.282;22.494;2023-04-01T15:33:43;14.70;;;8.93;;
75649;SDS011;64245;51.282;22.494;2023-04-01T15:36:38;15.88;;;9.05;;
75649;SDS011;64245;51.282;22.494;2023-04-01T15:39:09;12.77;;;7.75;;
75649;SDS011;64245;51.282;22.494;2023-04-01T15:41:43;17.60;;;8.07;;
75649;SDS011;64245;51.282;22.494;2023-04-01T15:48:01;15.45;;;8.85;;
75649;SDS011;64245;51.282;22.494;2023-04-01T15:50:43;16.48;;;9.20;;
75649;SDS011;64245;51.282;22.494;2023-04-01T15:53:36;14.98;;;8.25;;
75649;SDS011;64245;51.282;22.494;2023-04-01T15:56:19;15.43;;;7.63;;
75649;SDS011;64245;51.282;22.494;2023-04-01T15:58:56;16.48;;;7.18;;
75649;SDS011;64245;51.282;22.494;2023-04-01T16:01:38;16.42;;;6.28;;
75649;SDS011;64245;51.282;22.494;2023-04-01T16:04:46;11.27;;;6.50;;
75649;SDS011;64245;51.282;22.494;2023-04-01T16:09:58;11.10;;;6.10;;
75649;SDS011;64245;51.282;22.494;2023-04-01T16:15:37;14.18;;;6.75;;
75649;SDS011;64245;51.282;22.494;2023-04-01T16:21:01;13.18;;;7.00;;
75649;SDS011;64245;51.282;22.494;2023-04-01T16:26:19;15.77;;;7.57;;
75649;SDS011;64245;51.282;22.494;2023-04-01T16:29:02;16.33;;;8.02;;
75649;SDS011;64245;51.282;22.494;2023-04-01T16:31:46;17.48;;;7.85;;
75649;SDS011;64245;51.282;22.494;2023-04-01T16:34:25;15.55;;;7.95;;
75649;SDS011;64245;51.282;22.494;2023-04-01T16:37:05;14.05;;;7.18;;
75649;SDS011;64245;51.282;22.494;2023-04-01T16:40:42;12.88;;;6.80;;
75649;SDS011;64245;51.282;22.494;2023-04-01T16:42:52;14.52;;;7.40;;
75649;SDS011;64245;51.282;22.494;2023-04-01T16:45:43;16.92;;;8.25;;
75649;SDS011;64245;51.282;22.494;2023-04-01T16:48:20;12.90;;;7.80;;
75649;SDS011;64245;51.282;22.494;2023-04-01T16:51:12;16.25;;;7.72;;
75649;SDS011;64245;51.282;22.494;2023-04-01T16:53:43;10.77;;;5.75;;
75649;SDS011;64245;51.282;22.494;2023-04-01T16:56:22;13.50;;;6.85;;
75649;SDS011;64245;51.282;22.494;2023-04-01T17:02:01;12.30;;;6.18;;
75649;SDS011;64245;51.282;22.494;2023-04-01T17:04:45;11.57;;;6.32;;
75649;SDS011;64245;51.282;22.494;2023-04-01T17:16:00;14.43;;;7.15;;
75649;SDS011;64245;51.282;22.494;2023-04-01T17:18:41;14.73;;;7.30;;
75649;SDS011;64245;51.282;22.494;2023-04-01T17:21:25;12.90;;;5.15;;
75649;SDS011;64245;51.282;22.494;2023-04-01T17:23:52;12.30;;;5.20;;
75649;SDS011;64245;51.282;22.494;2023-04-01T17:29:36;10.77;;;5.32;;
75649;SDS011;64245;51.282;22.494;2023-04-01T17:35:17;11.18;;;5.70;;
75649;SDS011;64245;51.282;22.494;2023-04-01T17:43:59;16.10;;;7.57;;
75649;SDS011;64245;51.282;22.494;2023-04-01T17:49:17;19.85;;;8.95;;
75649;SDS011;64245;51.282;22.494;2023-04-01T17:54:46;16.30;;;8.20;;
75649;SDS011;64245;51.282;22.494;2023-04-01T17:57:25;17.02;;;9.02;;
75649;SDS011;64245;51.282;22.494;2023-04-01T17:59:59;18.08;;;8.48;;
75649;SDS011;64245;51.282;22.494;2023-04-01T18:02:32;22.50;;;10.60;;
75649;SDS011;64245;51.282;22.494;2023-04-01T18:08:06;22.63;;;8.98;;
75649;SDS011;64245;51.282;22.494;2023-04-01T18:16:46;20.80;;;10.27;;
75649;SDS011;64245;51.282;22.494;2023-04-01T18:22:00;19.35;;;10.52;;
75649;SDS011;64245;51.282;22.494;2023-04-01T18:27:03;23.30;;;10.75;;
75649;SDS011;64245;51.282;22.494;2023-04-01T18:29:43;20.35;;;10.43;;
75649;SDS011;64245;51.282;22.494;2023-04-01T18:32:23;23.50;;;10.75;;
75649;SDS011;64245;51.282;22.494;2023-04-01T18:35:01;20.95;;;11.05;;
75649;SDS011;64245;51.282;22.494;2023-04-01T18:37:44;21.13;;;10.70;;
75649;SDS011;64245;51.282;22.494;2023-04-01T18:51:20;24.00;;;11.15;;
75649;SDS011;64245;51.282;22.494;2023-04-01T18:53:54;21.35;;;11.00;;
75649;SDS011;64245;51.282;22.494;2023-04-01T18:56:29;20.20;;;10.07;;
75649;SDS011;64245;51.282;22.494;2023-04-01T19:01:57;22.65;;;11.43;;
75649;SDS011;64245;51.282;22.494;2023-04-01T19:04:36;25.08;;;11.65;;
75649;SDS011;64245;51.282;22.494;2023-04-01T19:09:53;20.30;;;11.45;;
75649;SDS011;64245;51.282;22.494;2023-04-01T19:20:45;24.50;;;11.68;;
75649;SDS011;64245;51.282;22.494;2023-04-01T19:32:31;26.17;;;12.35;;
75649;SDS011;64245;51.282;22.494;2023-04-01T19:38:24;28.00;;;12.05;;
75649;SDS011;64245;51.282;22.494;2023-04-01T19:40:56;25.10;;;11.27;;
75649;SDS011;64245;51.282;22.494;2023-04-01T19:46:23;18.65;;;11.18;;
75649;SDS011;64245;51.282;22.494;2023-04-01T19:51:39;22.67;;;11.40;;
75649;SDS011;64245;51.282;22.494;2023-04-01T19:54:30;23.30;;;10.63;;
75649;SDS011;64245;51.282;22.494;2023-04-01T19:57:41;23.17;;;11.32;;
75649;SDS011;64245;51.282;22.494;2023-04-01T20:00:40;22.83;;;10.68;;
75649;SDS011;64245;51.282;22.494;2023-04-01T20:06:01;20.45;;;9.27;;
75649;SDS011;64245;51.282;22.494;2023-04-01T20:11:23;17.63;;;9.50;;
75649;SDS011;64245;51.282;22.494;2023-04-01T20:16:37;18.17;;;9.38;;
75649;SDS011;64245;51.282;22.494;2023-04-01T20:19:06;18.88;;;8.90;;
75649;SDS011;64245;51.282;22.494;2023-04-01T20:21:45;17.40;;;9.05;;
75649;SDS011;64245;51.282;22.494;2023-04-01T20:24:23;21.48;;;10.18;;
75649;SDS011;64245;51.282;22.494;2023-04-01T20:27:04;20.00;;;10.20;;
75649;SDS011;64245;51.282;22.494;2023-04-01T20:29:41;19.10;;;9.38;;
75649;SDS011;64245;51.282;22.494;2023-04-01T20:51:43;24.73;;;10.70;;
75649;SDS011;64245;51.282;22.494;2023-04-01T20:57:25;12.90;;;7.43;;
75649;SDS011;64245;51.282;22.494;2023-04-01T21:00:23;23.60;;;11.55;;
75649;SDS011;64245;51.282;22.494;2023-04-01T21:03:03;22.58;;;10.50;;
75649;SDS011;64245;51.282;22.494;2023-04-01T21:20:30;22.15;;;12.13;;
75649;SDS011;64245;51.282;22.494;2023-04-01T21:26:19;27.38;;;13.95;;
75649;SDS011;64245;51.282;22.494;2023-04-01T21:28:59;25.42;;;12.32;;
75649;SDS011;64245;51.282;22.494;2023-04-01T21:31:46;23.90;;;12.20;;
75649;SDS011;64245;51.282;22.494;2023-04-01T21:48:23;13.48;;;7.13;;
75649;SDS011;64245;51.282;22.494;2023-04-01T21:59:26;9.80;;;5.25;;
75649;SDS011;64245;51.282;22.494;2023-04-01T22:13:27;9.30;;;5.18;;
75649;SDS011;64245;51.282;22.494;2023-04-01T22:18:39;9.40;;;4.93;;
75649;SDS011;64245;51.282;22.494;2023-04-01T22:21:13;8.80;;;5.88;;
75649;SDS011;64245;51.282;22.494;2023-04-01T22:30:04;5.93;;;3.80;;
75649;SDS011;64245;51.282;22.494;2023-04-01T22:35:08;7.53;;;3.22;;
75649;SDS011;64245;51.282;22.494;2023-04-01T22:37:59;4.88;;;2.80;;
75649;SDS011;64245;51.282;22.494;2023-04-01T22:43:12;5.22;;;2.70;;
75649;SDS011;64245;51.282;22.494;2023-04-01T22:51:18;5.43;;;3.10;;
75649;SDS011;64245;51.282;22.494;2023-04-01T22:56:37;5.25;;;2.97;;
75649;SDS011;64245;51.282;22.494;2023-04-01T23:01:50;6.63;;;3.45;;
75649;SDS011;64245;51.282;22.494;2023-04-01T23:04:20;6.90;;;3.80;;
75649;SDS011;64245;51.282;22.494;2023-04-01T23:06:54;4.45;;;3.03;;
75649;SDS011;64245;51.282;22.494;2023-04-01T23:09:26;7.03;;;3.80;;
75649;SDS011;64245;51.282;22.494;2023-04-01T23:11:58;5.13;;;3.10;;
75649;SDS011;64245;51.282;22.494;2023-04-01T23:14:33;5.05;;;2.92;;
75649;SDS011;64245;51.282;22.494;2023-04-01T23:25:46;5.57;;;3.58;;
75649;SDS011;64245;51.282;22.494;2023-04-01T23:30:51;4.93;;;2.33;;
75649;SDS011;64245;51.282;22.494;2023-04-01T23:35:53;3.55;;;2.03;;
75649;SDS011;64245;51.282;22.494;2023-04-01T23:38:30;2.80;;;1.85;;
75649;SDS011;64245;51.282;22.494;2023-04-01T23:40:58;7.38;;;2.47;;
75649;SDS011;64245;51.282;22.494;2023-04-01T23:45:56;4.85;;;2.63;;
75649;SDS011;64245;51.282;22.494;2023-04-01T23:48:26;4.15;;;2.30;;
75649;SDS011;64245;51.282;22.494;2023-04-01T23:50:56;4.38;;;1.95;;
75649;SDS011;64245;51.282;22.494;2023-04-01T23:53:24;3.28;;;1.77;;
75649;SDS011;64245;51.282;22.494;2023-04-01T23:55:53;3.92;;;2.17;;
